Time;durP1;ratioP1;P1;durP2;ratioP2;P2;SDS_P1;SDS_P2;PMS_P1;PMS_P2;Temp;Humidity;BMP_temperature;BMP_pressure;BME280_temperature;BME280_humidity;BME280_pressure;Samples;Min_cycle;Max_cycle;Signal;HPM_P1;HPM_P2
2022/03/05 00:01:08;;;;;;;22.90;11.70;;;6.90;80.50;;;;;;5042195;28;20733;-77
2022/03/05 00:03:37;;;;;;;21.83;10.93;;;6.90;80.20;;;;;;5043450;28;20223;-77
2022/03/05 00:06:05;;;;;;;19.27;11.10;;;6.90;80.10;;;;;;5042341;28;20214;-77
2022/03/05 00:08:35;;;;;;;20.00;10.00;;;6.90;79.80;;;;;;5044233;28;20205;-77
2022/03/05 00:11:03;;;;;;;18.43;10.03;;;6.90;80.00;;;;;;5042547;28;20247;-78
2022/03/05 00:13:32;;;;;;;18.63;9.53;;;6.90;80.10;;;;;;5042113;28;20207;-76
2022/03/05 00:16:00;;;;;;;21.27;9.80;;;6.90;79.80;;;;;;5040958;28;20347;-76
2022/03/05 00:18:28;;;;;;;19.93;9.60;;;7.00;79.70;;;;;;5042447;28;20201;-78
2022/03/05 00:20:57;;;;;;;18.13;9.73;;;7.00;79.50;;;;;;5042148;28;20220;-77
2022/03/05 00:23:25;;;;;;;20.80;9.97;;;7.00;79.40;;;;;;5042514;28;20205;-77
2022/03/05 00:25:55;;;;;;;20.67;10.07;;;7.00;79.20;;;;;;5041545;28;20199;-77
2022/03/05 00:28:23;;;;;;;17.57;9.70;;;7.00;79.10;;;;;;5044736;28;20209;-76
2022/03/05 00:30:57;;;;;;;17.70;9.73;;;7.00;78.90;;;;;;5044935;28;20228;-76
2022/03/05 00:33:26;;;;;;;16.57;9.50;;;6.90;78.90;;;;;;5048402;28;20191;-77
2022/03/05 00:35:54;;;;;;;17.73;8.80;;;7.00;78.80;;;;;;5050020;28;20195;-77
2022/03/05 00:38:22;;;;;;;17.63;9.53;;;7.00;78.70;;;;;;5049609;28;20205;-77
2022/03/05 00:40:50;;;;;;;17.40;9.23;;;7.00;78.60;;;;;;5047997;28;20260;-77
2022/03/05 00:43:20;;;;;;;15.80;8.80;;;7.00;78.40;;;;;;5047989;28;20694;-76
2022/03/05 00:45:48;;;;;;;17.40;8.93;;;7.00;78.20;;;;;;5048584;28;20199;-77
2022/03/05 00:48:17;;;;;;;18.00;9.80;;;7.00;78.20;;;;;;5047183;28;20573;-77
2022/03/05 00:50:45;;;;;;;16.47;9.90;;;7.00;78.30;;;;;;5048137;28;20211;-77
2022/03/05 00:53:17;;;;;;;16.20;9.67;;;7.00;78.30;;;;;;5048789;28;20199;-77
2022/03/05 00:55:45;;;;;;;17.20;9.50;;;7.00;78.20;;;;;;5047872;28;20553;-77
2022/03/05 00:58:15;;;;;;;19.73;9.10;;;7.00;78.20;;;;;;5047956;28;20286;-76
2022/03/05 01:00:44;;;;;;;15.93;9.13;;;7.00;78.10;;;;;;5048218;28;20204;-76
2022/03/05 01:03:13;;;;;;;18.73;8.83;;;7.00;77.90;;;;;;5047419;28;20334;-76
2022/03/05 01:05:42;;;;;;;17.40;9.17;;;7.10;77.90;;;;;;5047150;28;20221;-76
2022/03/05 01:08:11;;;;;;;18.67;9.80;;;7.00;77.70;;;;;;5048062;28;20203;-76
2022/03/05 01:10:40;;;;;;;19.03;10.00;;;7.00;77.70;;;;;;5049619;28;20225;-78
2022/03/05 01:13:08;;;;;;;16.27;8.50;;;7.00;77.60;;;;;;5047931;28;20203;-76
2022/03/05 01:15:36;;;;;;;17.80;9.27;;;7.00;77.80;;;;;;5047551;28;20200;-76
2022/03/05 01:18:06;;;;;;;16.10;8.97;;;7.00;77.70;;;;;;5048704;28;20211;-77
2022/03/05 01:20:35;;;;;;;16.60;9.27;;;7.00;77.60;;;;;;5049588;28;20195;-77
2022/03/05 01:23:03;;;;;;;17.03;9.40;;;6.90;77.50;;;;;;5049459;28;20207;-77
2022/03/05 01:25:31;;;;;;;18.17;8.73;;;6.90;77.60;;;;;;5048315;28;20229;-76
2022/03/05 01:28:00;;;;;;;17.53;8.93;;;6.90;77.50;;;;;;5047437;28;20196;-76
2022/03/05 01:30:29;;;;;;;17.03;8.87;;;6.90;77.50;;;;;;5048747;28;20215;-76
2022/03/05 01:32:57;;;;;;;16.40;9.00;;;6.90;77.50;;;;;;5048865;28;20284;-76
2022/03/05 01:35:27;;;;;;;18.80;9.60;;;6.90;77.50;;;;;;5048086;28;20231;-76
2022/03/05 01:37:55;;;;;;;20.97;9.77;;;6.90;77.30;;;;;;5049312;28;20204;-77
2022/03/05 01:40:24;;;;;;;17.67;9.37;;;6.90;77.50;;;;;;5046315;28;20206;-77
2022/03/05 01:42:52;;;;;;;16.63;9.50;;;6.90;77.40;;;;;;5044991;28;21120;-78
2022/03/05 01:45:20;;;;;;;18.60;9.73;;;6.90;77.50;;;;;;5044737;28;20586;-77
2022/03/05 01:47:48;;;;;;;17.50;9.20;;;6.80;77.50;;;;;;5047758;28;20644;-76
2022/03/05 01:50:17;;;;;;;17.43;10.27;;;6.90;77.50;;;;;;5044428;28;20688;-77
2022/03/05 01:52:47;;;;;;;18.87;10.03;;;6.80;77.60;;;;;;5046585;28;20219;-76
2022/03/05 01:55:15;;;;;;;18.57;9.60;;;6.80;77.60;;;;;;5044951;28;20759;-77
2022/03/05 01:57:43;;;;;;;20.20;9.53;;;6.80;77.60;;;;;;5044151;28;20253;-77
2022/03/05 02:00:14;;;;;;;18.63;9.37;;;6.80;77.70;;;;;;5044371;28;20196;-77
2022/03/05 02:02:44;;;;;;;16.10;9.40;;;6.80;77.70;;;;;;5045246;28;20938;-77
2022/03/05 02:05:15;;;;;;;23.13;9.93;;;6.80;77.70;;;;;;5044394;28;20196;-77
2022/03/05 02:07:43;;;;;;;18.13;9.97;;;6.80;77.70;;;;;;5043933;28;20198;-76
2022/03/05 02:10:13;;;;;;;19.80;9.93;;;6.80;77.80;;;;;;5044922;28;20220;-78
2022/03/05 02:12:41;;;;;;;17.33;9.03;;;6.80;77.70;;;;;;5043616;28;20206;-76
2022/03/05 02:15:10;;;;;;;16.80;9.90;;;6.80;77.70;;;;;;5043384;28;20189;-77
2022/03/05 02:17:38;;;;;;;17.73;10.80;;;6.80;77.70;;;;;;5044526;28;20200;-76
2022/03/05 02:20:09;;;;;;;21.40;10.43;;;6.80;77.60;;;;;;5046200;28;20204;-77
2022/03/05 02:22:40;;;;;;;22.17;10.63;;;6.80;77.60;;;;;;5044605;28;20209;-76
2022/03/05 02:25:09;;;;;;;18.97;10.37;;;6.80;77.70;;;;;;5044821;28;20661;-76
2022/03/05 02:27:38;;;;;;;21.13;10.53;;;6.80;77.60;;;;;;5044763;28;20201;-77
2022/03/05 02:30:08;;;;;;;20.13;11.53;;;6.80;78.00;;;;;;5043609;28;20669;-77
2022/03/05 02:32:40;;;;;;;18.63;10.77;;;6.80;78.00;;;;;;5014175;28;20197;-78
2022/03/05 02:35:09;;;;;;;20.13;11.53;;;6.80;77.90;;;;;;5044100;28;20653;-77
2022/03/05 02:37:38;;;;;;;20.17;11.30;;;6.80;78.00;;;;;;5044080;28;20666;-76
2022/03/05 02:40:08;;;;;;;20.63;11.53;;;6.80;78.30;;;;;;5043420;28;20211;-76
2022/03/05 02:42:36;;;;;;;22.03;11.00;;;6.80;78.20;;;;;;5043758;28;20211;-77
2022/03/05 02:45:05;;;;;;;22.10;11.47;;;6.80;78.20;;;;;;5045272;28;20247;-77
2022/03/05 02:47:33;;;;;;;24.17;12.30;;;6.80;78.30;;;;;;5043980;28;20713;-77
2022/03/05 02:50:01;;;;;;;17.93;10.67;;;6.80;78.30;;;;;;5044992;28;20208;-77
2022/03/05 02:52:29;;;;;;;26.67;12.53;;;6.80;78.20;;;;;;5043791;28;20224;-77
2022/03/05 02:54:59;;;;;;;21.57;11.67;;;6.80;78.30;;;;;;5045976;28;20207;-77
2022/03/05 02:57:27;;;;;;;22.07;11.50;;;6.70;78.20;;;;;;5044269;28;20203;-77
2022/03/05 02:59:55;;;;;;;23.93;12.17;;;6.80;78.20;;;;;;5043745;28;20396;-77
2022/03/05 03:02:26;;;;;;;22.90;12.17;;;6.70;78.20;;;;;;5041904;28;20227;-77
2022/03/05 03:04:55;;;;;;;24.23;11.50;;;6.80;78.20;;;;;;5044858;28;20648;-78
2022/03/05 03:07:23;;;;;;;20.47;11.37;;;6.80;78.20;;;;;;5045643;28;20210;-78
2022/03/05 03:09:51;;;;;;;19.57;11.00;;;6.80;78.00;;;;;;5044896;28;20303;-76
2022/03/05 03:12:21;;;;;;;24.30;12.00;;;6.80;78.00;;;;;;5045843;28;21174;-77
2022/03/05 03:14:50;;;;;;;21.70;11.27;;;6.80;77.90;;;;;;5044424;28;20196;-76
2022/03/05 03:17:18;;;;;;;22.93;11.43;;;6.80;77.90;;;;;;5043315;28;20207;-77
2022/03/05 03:19:46;;;;;;;24.33;11.47;;;6.80;77.80;;;;;;5044481;28;20200;-77
2022/03/05 03:22:15;;;;;;;23.17;12.07;;;6.80;77.80;;;;;;5042851;28;20186;-78
2022/03/05 03:24:43;;;;;;;21.83;11.50;;;6.80;77.70;;;;;;5043878;28;20211;-77
2022/03/05 03:27:12;;;;;;;18.23;10.23;;;6.90;77.70;;;;;;5042472;28;20662;-77
2022/03/05 03:29:41;;;;;;;20.83;11.13;;;6.90;77.60;;;;;;5043207;28;20755;-77
2022/03/05 03:32:09;;;;;;;18.40;11.37;;;6.90;77.60;;;;;;5043436;28;20874;-77
2022/03/05 03:34:38;;;;;;;20.03;11.67;;;6.90;77.60;;;;;;5043349;28;20704;-76
2022/03/05 03:37:07;;;;;;;22.20;11.20;;;6.90;77.50;;;;;;5042734;28;20211;-77
2022/03/05 03:39:35;;;;;;;23.97;12.27;;;6.90;77.50;;;;;;5044267;28;20200;-77
2022/03/05 03:42:04;;;;;;;19.90;11.60;;;7.00;77.40;;;;;;5041895;28;20197;-77
2022/03/05 03:44:32;;;;;;;22.90;11.83;;;7.00;77.20;;;;;;5043527;28;20199;-77
2022/03/05 03:47:02;;;;;;;24.07;11.93;;;7.00;77.20;;;;;;5042368;28;20196;-77
2022/03/05 03:49:38;;;;;;;22.17;12.53;;;7.00;77.10;;;;;;5042068;28;20191;-77
2022/03/05 03:52:07;;;;;;;21.67;12.37;;;7.00;77.00;;;;;;5041092;28;20236;-77
2022/03/05 03:54:35;;;;;;;20.90;11.27;;;7.00;77.00;;;;;;5043027;28;20206;-77
2022/03/05 03:57:04;;;;;;;23.07;12.23;;;7.00;76.90;;;;;;5043140;28;20287;-77
2022/03/05 03:59:32;;;;;;;24.40;12.00;;;7.00;76.80;;;;;;5043845;28;20224;-77
2022/03/05 04:02:03;;;;;;;22.73;12.67;;;7.00;76.40;;;;;;5040386;28;20207;-76
2022/03/05 04:04:32;;;;;;;23.37;12.40;;;7.00;76.40;;;;;;5041017;28;20197;-77
2022/03/05 04:09:46;;;;;;;23.70;12.53;;;7.00;76.30;;;;;;5041085;28;20202;-76
2022/03/05 04:12:15;;;;;;;26.50;13.50;;;7.00;76.10;;;;;;5042610;28;20237;-77
2022/03/05 04:14:44;;;;;;;21.60;12.47;;;7.00;76.00;;;;;;5043433;28;20231;-77
2022/03/05 04:17:14;;;;;;;23.70;12.57;;;7.10;76.10;;;;;;5041874;28;20197;-76
2022/03/05 04:19:42;;;;;;;18.20;10.87;;;7.10;76.10;;;;;;5041443;28;20208;-77
2022/03/05 04:22:11;;;;;;;22.63;12.47;;;7.10;76.10;;;;;;5041261;28;20212;-78
2022/03/05 04:24:39;;;;;;;27.53;13.53;;;7.10;76.10;;;;;;5041617;28;20207;-77
2022/03/05 04:27:08;;;;;;;26.80;13.47;;;7.10;76.20;;;;;;5042320;28;20207;-78
2022/03/05 04:29:37;;;;;;;25.90;14.37;;;7.10;76.10;;;;;;5042231;28;20199;-79
2022/03/05 04:32:06;;;;;;;21.33;11.87;;;7.10;76.00;;;;;;5042316;28;20731;-76
2022/03/05 04:34:36;;;;;;;24.27;12.23;;;7.10;76.00;;;;;;5042275;28;20209;-77
2022/03/05 04:37:05;;;;;;;19.33;12.10;;;7.10;75.80;;;;;;5044005;28;20592;-78
2022/03/05 04:39:34;;;;;;;28.53;13.80;;;7.20;75.70;;;;;;5041535;28;20209;-77
2022/03/05 04:42:02;;;;;;;24.98;13.57;;;7.10;75.40;;;;;;5040930;28;20441;-77
2022/03/05 04:44:30;;;;;;;24.23;13.47;;;7.20;75.70;;;;;;5042793;28;20838;-77
2022/03/05 04:46:59;;;;;;;22.10;12.03;;;7.20;75.70;;;;;;5043059;28;20206;-79
2022/03/05 04:49:28;;;;;;;24.27;13.33;;;7.20;75.50;;;;;;5042697;28;20202;-77
2022/03/05 04:51:57;;;;;;;25.23;14.07;;;7.20;75.40;;;;;;5041552;28;20213;-76
2022/03/05 04:54:29;;;;;;;26.48;14.55;;;7.20;75.10;;;;;;5039615;28;21138;-78
2022/03/05 04:56:58;;;;;;;25.43;14.33;;;7.20;75.40;;;;;;5042589;28;20663;-78
2022/03/05 04:59:26;;;;;;;26.80;13.50;;;7.20;75.20;;;;;;5041274;28;20201;-76
2022/03/05 05:01:56;;;;;;;23.33;12.33;;;7.20;74.90;;;;;;5043137;28;20195;-77
2022/03/05 05:04:25;;;;;;;22.47;12.60;;;7.20;75.40;;;;;;5041562;28;20231;-77
2022/03/05 05:06:53;;;;;;;24.47;12.37;;;7.20;74.30;;;;;;5042282;28;20200;-77
2022/03/05 05:09:23;;;;;;;25.73;13.30;;;7.30;74.30;;;;;;5042881;28;20219;-77
2022/03/05 05:11:51;;;;;;;25.23;12.97;;;7.20;74.10;;;;;;5042606;28;20217;-77
2022/03/05 05:14:19;;;;;;;22.20;12.40;;;7.20;73.80;;;;;;5041611;28;20264;-78
2022/03/05 05:16:47;;;;;;;24.77;12.43;;;7.20;73.70;;;;;;5045678;28;20203;-77
2022/03/05 05:19:28;;;;;;;24.20;12.90;;;7.20;73.60;;;;;;5046099;28;20654;-76
2022/03/05 05:21:58;;;;;;;27.93;13.27;;;7.20;73.90;;;;;;5046770;28;20211;-77
2022/03/05 05:24:30;;;;;;;26.77;14.23;;;7.20;73.80;;;;;;5045081;28;20202;-77
2022/03/05 05:26:59;;;;;;;24.47;13.13;;;7.20;73.80;;;;;;5045444;28;20199;-77
2022/03/05 05:29:27;;;;;;;25.38;14.88;;;7.20;73.80;;;;;;5044723;28;20433;-77
2022/03/05 05:32:10;;;;;;;26.67;12.77;;;7.20;74.30;;;;;;5044707;28;20219;-77
2022/03/05 05:34:39;;;;;;;24.87;12.50;;;7.20;74.20;;;;;;5045008;28;20208;-76
2022/03/05 05:37:14;;;;;;;27.80;13.77;;;7.30;74.30;;;;;;5046260;28;20202;-76
2022/03/05 05:39:43;;;;;;;22.13;12.40;;;7.30;74.20;;;;;;5044996;28;20201;-77
2022/03/05 05:42:12;;;;;;;26.00;12.93;;;7.30;74.00;;;;;;5043994;28;20194;-77
2022/03/05 05:44:41;;;;;;;25.33;13.07;;;7.30;73.70;;;;;;5045325;28;20201;-76
2022/03/05 05:47:10;;;;;;;25.67;13.03;;;7.40;73.70;;;;;;5045917;28;20255;-76
2022/03/05 05:49:39;;;;;;;23.30;12.40;;;7.40;73.70;;;;;;5046472;28;20592;-77
2022/03/05 05:52:08;;;;;;;25.13;12.90;;;7.40;73.60;;;;;;5044517;28;20240;-76
2022/03/05 05:54:36;;;;;;;28.67;13.60;;;7.40;73.60;;;;;;5043918;28;20220;-76
2022/03/05 05:57:07;;;;;;;30.67;14.17;;;7.50;73.40;;;;;;5044180;28;20213;-77
2022/03/05 05:59:35;;;;;;;26.23;13.87;;;7.50;73.30;;;;;;5044262;28;20216;-77
2022/03/05 06:02:04;;;;;;;22.37;13.13;;;7.50;73.00;;;;;;5043372;28;20204;-77
2022/03/05 06:04:33;;;;;;;26.27;13.10;;;7.50;72.90;;;;;;5046044;28;20299;-77
2022/03/05 06:07:01;;;;;;;28.53;14.50;;;7.50;72.80;;;;;;5044940;28;20197;-77
2022/03/05 06:09:29;;;;;;;23.77;13.33;;;7.50;72.60;;;;;;5044766;28;20266;-77
2022/03/05 06:11:58;;;;;;;27.70;14.67;;;7.60;72.80;;;;;;5044452;28;20749;-78
2022/03/05 06:14:27;;;;;;;26.70;14.20;;;7.60;72.90;;;;;;5044684;28;20670;-77
2022/03/05 06:16:56;;;;;;;29.87;16.40;;;7.60;72.90;;;;;;5044710;28;21723;-77
2022/03/05 06:19:24;;;;;;;27.33;13.23;;;7.60;73.10;;;;;;5044160;28;20201;-78
2022/03/05 06:21:53;;;;;;;34.77;14.63;;;7.60;73.00;;;;;;5046031;28;20205;-78
2022/03/05 06:24:21;;;;;;;28.10;13.97;;;7.70;72.80;;;;;;5043283;28;20195;-77
2022/03/05 06:26:49;;;;;;;26.47;14.27;;;7.70;72.70;;;;;;5045410;28;20206;-77
2022/03/05 06:29:18;;;;;;;33.77;15.43;;;7.70;72.30;;;;;;5043095;28;20213;-77
2022/03/05 06:31:48;;;;;;;41.33;17.20;;;7.70;72.10;;;;;;5046118;28;20214;-77
2022/03/05 06:34:16;;;;;;;33.70;15.90;;;7.80;72.10;;;;;;5043479;28;20225;-78
2022/03/05 06:36:44;;;;;;;30.33;15.43;;;7.80;72.20;;;;;;5043808;28;20454;-77
2022/03/05 06:39:13;;;;;;;26.53;14.17;;;7.80;72.10;;;;;;5043352;28;20739;-79
2022/03/05 06:41:41;;;;;;;27.00;14.47;;;7.80;71.90;;;;;;5043212;28;20206;-78
2022/03/05 06:44:10;;;;;;;32.97;14.27;;;7.90;71.90;;;;;;5044230;28;21076;-77
2022/03/05 06:46:38;;;;;;;28.03;14.00;;;7.90;71.20;;;;;;5044465;28;20218;-77
2022/03/05 06:49:08;;;;;;;31.27;14.93;;;7.90;71.20;;;;;;5043898;28;20202;-78
2022/03/05 06:51:36;;;;;;;25.93;14.23;;;7.90;71.40;;;;;;5043366;28;20209;-78
2022/03/05 06:54:04;;;;;;;25.03;13.07;;;7.90;70.90;;;;;;5045024;28;20237;-78
2022/03/05 06:56:33;;;;;;;24.13;13.17;;;7.90;70.70;;;;;;5044870;28;20193;-78
2022/03/05 06:59:01;;;;;;;30.50;14.00;;;8.00;70.90;;;;;;5045061;28;20210;-77
2022/03/05 07:01:35;;;;;;;28.40;14.30;;;8.00;70.70;;;;;;5044547;28;20737;-78
2022/03/05 07:04:03;;;;;;;26.13;13.97;;;8.00;70.30;;;;;;5042906;28;20234;-78
2022/03/05 07:06:33;;;;;;;24.20;13.97;;;8.10;70.70;;;;;;5043388;28;20202;-76
2022/03/05 07:09:02;;;;;;;29.33;16.20;;;8.10;70.20;;;;;;5043740;28;20432;-77
2022/03/05 07:11:30;;;;;;;26.77;14.80;;;8.10;70.60;;;;;;5043792;28;20218;-78
2022/03/05 07:13:59;;;;;;;30.20;15.73;;;8.10;70.50;;;;;;5043229;28;20753;-77
2022/03/05 07:16:27;;;;;;;28.00;15.63;;;8.10;70.10;;;;;;5043598;28;20195;-78
2022/03/05 07:18:56;;;;;;;30.03;14.67;;;8.20;70.00;;;;;;5046320;28;20210;-77
2022/03/05 07:21:24;;;;;;;26.27;14.37;;;8.20;70.00;;;;;;5043389;28;20210;-76
2022/03/05 07:23:54;;;;;;;30.55;15.25;;;8.20;69.50;;;;;;5043366;28;20436;-78
2022/03/05 07:26:23;;;;;;;28.80;15.00;;;8.20;69.50;;;;;;5050337;28;20202;-77
2022/03/05 07:28:52;;;;;;;27.97;14.33;;;8.30;69.80;;;;;;5048537;28;20222;-78
2022/03/05 07:31:20;;;;;;;30.33;14.40;;;8.30;69.70;;;;;;5046898;28;20241;-76
2022/03/05 07:33:48;;;;;;;32.63;14.67;;;8.40;69.70;;;;;;5042372;28;20221;-76
2022/03/05 07:36:17;;;;;;;30.07;15.43;;;8.50;69.50;;;;;;5042883;28;20891;-79
2022/03/05 07:38:45;;;;;;;29.10;15.03;;;8.50;68.90;;;;;;5041098;28;20199;-78
2022/03/05 07:41:15;;;;;;;27.17;14.13;;;8.60;69.10;;;;;;5043308;28;20212;-78
2022/03/05 07:43:43;;;;;;;23.10;15.10;;;8.60;68.90;;;;;;5042998;28;20331;-77
2022/03/05 07:46:12;;;;;;;26.07;14.27;;;8.70;68.80;;;;;;5042606;28;20441;-78
2022/03/05 07:48:40;;;;;;;26.17;13.67;;;8.70;68.80;;;;;;5042559;28;20199;-77
2022/03/05 07:51:08;;;;;;;28.07;14.43;;;8.80;68.90;;;;;;5041773;28;20206;-79
2022/03/05 07:53:37;;;;;;;26.27;13.63;;;8.80;68.30;;;;;;5042033;28;20214;-77
2022/03/05 07:56:06;;;;;;;32.83;15.60;;;8.80;68.30;;;;;;5043278;28;20204;-78
2022/03/05 07:58:36;;;;;;;31.17;14.93;;;8.90;68.40;;;;;;5044462;28;20302;-78
2022/03/05 08:01:04;;;;;;;25.00;14.23;;;9.00;68.40;;;;;;5043229;28;20825;-78
2022/03/05 08:03:33;;;;;;;28.60;14.60;;;9.00;68.10;;;;;;5043118;28;20313;-76
2022/03/05 08:06:01;;;;;;;24.90;14.07;;;9.10;68.00;;;;;;5042019;28;20203;-77
2022/03/05 08:08:30;;;;;;;25.27;14.60;;;9.20;67.70;;;;;;5040724;28;20900;-76
2022/03/05 08:10:59;;;;;;;27.47;14.00;;;9.30;67.50;;;;;;5040703;28;20198;-78
2022/03/05 08:13:29;;;;;;;26.80;14.23;;;9.40;68.30;;;;;;5040930;28;20218;-78
2022/03/05 08:15:59;;;;;;;25.03;14.60;;;9.60;67.60;;;;;;5041135;28;20195;-79
2022/03/05 08:18:27;;;;;;;27.77;15.50;;;9.70;66.90;;;;;;5041920;28;20203;-77
2022/03/05 08:20:55;;;;;;;25.67;14.70;;;9.80;66.90;;;;;;5043269;28;20194;-77
2022/03/05 08:23:24;;;;;;;24.13;14.13;;;9.90;67.10;;;;;;5042264;28;20554;-76
2022/03/05 08:25:52;;;;;;;24.13;13.93;;;10.00;66.60;;;;;;5041128;28;20198;-77
2022/03/05 08:28:22;;;;;;;24.37;13.63;;;10.10;65.90;;;;;;5041715;28;20240;-77
2022/03/05 08:30:50;;;;;;;25.67;13.43;;;10.20;66.10;;;;;;5042120;28;21088;-76
2022/03/05 08:33:21;;;;;;;26.93;14.43;;;10.20;65.70;;;;;;5041266;28;20823;-78
2022/03/05 08:35:50;;;;;;;24.60;14.03;;;10.30;65.40;;;;;;5041691;28;20203;-76
2022/03/05 08:38:18;;;;;;;26.33;14.63;;;10.40;65.20;;;;;;5041969;28;20198;-76
2022/03/05 08:40:46;;;;;;;29.77;14.87;;;10.40;65.70;;;;;;5044266;28;20199;-77
2022/03/05 08:43:14;;;;;;;26.70;13.27;;;10.50;65.70;;;;;;5042287;28;20203;-77
2022/03/05 08:45:43;;;;;;;28.23;14.37;;;10.60;65.30;;;;;;5042370;28;20206;-77
2022/03/05 08:48:11;;;;;;;25.97;14.73;;;10.60;64.30;;;;;;5041819;28;20217;-78
2022/03/05 08:50:41;;;;;;;24.70;14.33;;;10.70;64.80;;;;;;5044819;28;20606;-78
2022/03/05 08:53:09;;;;;;;26.17;13.83;;;10.80;64.90;;;;;;5046328;28;20207;-78
2022/03/05 08:55:38;;;;;;;30.87;16.17;;;10.90;64.70;;;;;;5045544;28;20218;-78
2022/03/05 08:58:06;;;;;;;26.13;14.63;;;11.10;65.20;;;;;;5044575;28;20207;-78
2022/03/05 09:00:34;;;;;;;28.73;14.73;;;11.10;64.50;;;;;;5045265;28;20727;-79
2022/03/05 09:03:03;;;;;;;27.80;14.50;;;11.20;64.60;;;;;;5045283;28;20823;-78
2022/03/05 09:05:31;;;;;;;30.73;15.57;;;11.20;64.30;;;;;;5042825;28;20219;-79
2022/03/05 09:08:01;;;;;;;27.07;14.43;;;11.20;64.00;;;;;;5044755;28;20205;-80
2022/03/05 09:10:30;;;;;;;26.83;15.27;;;11.30;64.10;;;;;;5043239;28;20195;-79
2022/03/05 09:12:58;;;;;;;23.47;14.47;;;11.30;64.00;;;;;;5042752;28;20191;-78
2022/03/05 09:15:27;;;;;;;28.83;14.97;;;11.30;63.70;;;;;;5042260;28;21276;-80
2022/03/05 09:17:55;;;;;;;26.37;14.13;;;11.40;63.90;;;;;;5044541;28;20210;-78
2022/03/05 09:20:24;;;;;;;24.63;14.63;;;11.50;63.40;;;;;;5045328;28;20248;-78
2022/03/05 09:22:52;;;;;;;24.73;13.97;;;11.50;63.40;;;;;;5044807;28;20283;-78
2022/03/05 09:25:22;;;;;;;28.00;14.70;;;11.50;62.90;;;;;;5043120;28;20556;-78
2022/03/05 09:27:50;;;;;;;28.63;15.23;;;11.60;63.40;;;;;;5044787;28;20203;-78
2022/03/05 09:30:18;;;;;;;27.13;15.13;;;11.70;63.40;;;;;;5046571;28;20206;-78
2022/03/05 09:32:47;;;;;;;25.57;14.73;;;11.70;63.00;;;;;;5048346;28;20199;-78
2022/03/05 09:35:15;;;;;;;28.33;16.30;;;11.70;62.20;;;;;;5048536;28;20460;-80
2022/03/05 09:37:44;;;;;;;24.57;15.13;;;11.80;62.50;;;;;;5050477;28;20206;-80
2022/03/05 09:40:13;;;;;;;26.67;15.13;;;11.80;63.30;;;;;;5049431;28;20291;-79
2022/03/05 09:42:44;;;;;;;30.57;15.37;;;11.80;63.50;;;;;;5048997;28;20767;-80
2022/03/05 09:45:14;;;;;;;28.40;15.10;;;11.80;62.30;;;;;;5050837;28;20191;-79
2022/03/05 09:47:43;;;;;;;25.40;15.10;;;11.90;62.30;;;;;;5047484;28;20217;-80
2022/03/05 09:50:12;;;;;;;27.00;14.87;;;11.90;62.50;;;;;;5046028;28;20207;-78
2022/03/05 09:52:40;;;;;;;28.07;15.27;;;11.90;62.30;;;;;;5045609;28;20275;-79
2022/03/05 09:55:10;;;;;;;29.30;15.13;;;11.90;62.30;;;;;;5044789;28;20237;-81
2022/03/05 09:57:38;;;;;;;27.37;15.13;;;11.90;62.00;;;;;;5045425;28;20203;-79
2022/03/05 10:00:09;;;;;;;25.43;14.83;;;11.90;62.20;;;;;;5042530;28;20203;-79
2022/03/05 10:02:38;;;;;;;26.30;14.10;;;12.00;61.90;;;;;;5044081;28;20245;-79
2022/03/05 10:05:14;;;;;;;23.73;13.33;;;12.00;62.40;;;;;;5044922;28;20209;-78
2022/03/05 10:08:00;;;;;;;26.07;13.80;;;12.00;62.30;;;;;;5044761;28;20194;-79
2022/03/05 10:10:29;;;;;;;26.10;13.70;;;12.10;62.20;;;;;;5045207;28;20208;-78
2022/03/05 10:12:58;;;;;;;22.80;13.43;;;12.10;62.20;;;;;;5045001;28;20233;-78
2022/03/05 10:15:28;;;;;;;24.35;14.70;;;12.20;61.60;;;;;;5044488;28;20441;-79
2022/03/05 10:17:58;;;;;;;24.23;13.67;;;12.20;60.90;;;;;;5045172;28;20273;-80
2022/03/05 10:20:28;;;;;;;26.40;14.50;;;12.20;61.40;;;;;;5045623;28;20195;-78
2022/03/05 10:22:59;;;;;;;23.87;13.33;;;12.30;61.00;;;;;;5045622;28;20230;-79
2022/03/05 10:25:31;;;;;;;22.87;13.63;;;12.30;61.00;;;;;;5045466;28;20201;-80
2022/03/05 10:28:06;;;;;;;24.35;14.15;;;12.40;61.00;;;;;;5045173;28;21017;-80
2022/03/05 10:30:38;;;;;;;22.77;13.17;;;12.40;60.80;;;;;;5047824;28;20255;-82
2022/03/05 10:33:07;;;;;;;23.47;13.07;;;12.50;61.30;;;;;;5046245;28;20199;-80
2022/03/05 10:35:35;;;;;;;23.37;12.93;;;12.60;61.10;;;;;;5044799;28;20818;-80
2022/03/05 10:38:05;;;;;;;22.60;12.67;;;12.60;60.60;;;;;;5044749;28;20199;-80
2022/03/05 10:40:36;;;;;;;22.37;12.23;;;12.60;60.70;;;;;;5046038;28;20195;-81
2022/03/05 10:43:07;;;;;;;21.63;11.93;;;12.70;60.20;;;;;;5042992;28;20645;-81
2022/03/05 10:45:54;;;;;;;20.17;12.03;;;12.70;60.50;;;;;;5043277;28;20264;-80
2022/03/05 10:49:07;;;;;;;23.27;12.67;;;12.80;60.80;;;;;;5044156;28;20708;-80
2022/03/05 10:51:37;;;;;;;20.33;11.37;;;12.90;60.40;;;;;;5045123;28;20191;-80
2022/03/05 10:54:07;;;;;;;21.67;11.53;;;13.00;60.00;;;;;;5044309;28;20206;-81
2022/03/05 10:56:36;;;;;;;21.37;11.53;;;13.10;59.70;;;;;;5043487;28;20721;-81
2022/03/05 10:59:07;;;;;;;19.83;11.30;;;13.20;59.90;;;;;;5044036;28;20253;-80
2022/03/05 11:01:38;;;;;;;21.40;11.57;;;13.30;59.80;;;;;;5045459;28;20199;-79
2022/03/05 11:04:09;;;;;;;22.08;12.82;;;13.30;58.40;;;;;;5044615;28;21364;-80
2022/03/05 11:06:39;;;;;;;22.30;11.60;;;13.40;58.70;;;;;;5043457;28;20198;-80
2022/03/05 11:09:08;;;;;;;19.23;11.10;;;13.40;58.90;;;;;;5044278;28;20563;-80
2022/03/05 11:11:39;;;;;;;17.13;10.53;;;13.40;59.30;;;;;;5044016;28;20238;-80
2022/03/05 11:14:12;;;;;;;19.43;10.40;;;13.50;58.60;;;;;;5043048;28;20251;-81
2022/03/05 11:16:43;;;;;;;17.20;10.97;;;13.50;58.30;;;;;;5043277;28;20220;-81
2022/03/05 11:19:14;;;;;;;19.97;11.43;;;13.60;58.50;;;;;;5044478;28;20730;-80
2022/03/05 11:21:42;;;;;;;24.37;12.70;;;13.60;58.10;;;;;;5044500;28;20521;-80
2022/03/05 11:24:14;;;;;;;21.63;12.10;;;13.60;58.30;;;;;;5042378;28;20199;-79
2022/03/05 11:26:47;;;;;;;20.30;11.17;;;13.60;58.30;;;;;;5042431;28;20278;-77
2022/03/05 11:29:30;;;;;;;20.47;11.40;;;13.50;57.90;;;;;;5043750;28;20199;-77
2022/03/05 11:32:14;;;;;;;17.30;10.97;;;13.60;58.20;;;;;;5043097;28;20568;-79
2022/03/05 11:34:47;;;;;;;19.20;11.07;;;13.60;58.10;;;;;;5043042;28;20191;-77
2022/03/05 11:37:25;;;;;;;17.70;11.57;;;13.60;58.20;;;;;;5045345;28;20323;-77
2022/03/05 11:39:54;;;;;;;20.65;12.27;;;13.50;57.60;;;;;;5042615;28;20528;-77
2022/03/05 11:42:30;;;;;;;23.97;12.17;;;13.50;57.70;;;;;;5043110;28;20196;-76
2022/03/05 11:45:01;;;;;;;21.90;11.40;;;13.50;58.00;;;;;;5043048;28;20660;-76
2022/03/05 11:47:35;;;;;;;19.07;11.10;;;13.50;58.40;;;;;;5043107;28;20862;-79
2022/03/05 11:50:16;;;;;;;20.03;11.47;;;13.40;57.40;;;;;;5042251;28;20206;-77
2022/03/05 11:53:14;;;;;;;22.43;11.67;;;13.30;57.70;;;;;;5044210;28;20213;-77
2022/03/05 11:55:43;;;;;;;19.70;11.20;;;13.30;57.90;;;;;;5021061;28;20378;-78
2022/03/05 11:58:32;;;;;;;22.63;12.63;;;13.30;58.10;;;;;;5043150;28;20202;-79
2022/03/05 12:01:37;;;;;;;19.13;11.40;;;13.20;58.30;;;;;;5041800;28;20198;-77
2022/03/05 12:04:24;;;;;;;23.60;13.52;;;13.20;58.30;;;;;;5041903;28;20459;-78
2022/03/05 12:06:56;;;;;;;20.83;12.10;;;13.10;58.50;;;;;;5040735;28;20668;-78
2022/03/05 12:09:43;;;;;;;25.13;12.80;;;13.10;58.50;;;;;;5042969;28;20199;-78
2022/03/05 12:12:14;;;;;;;22.23;12.20;;;13.10;58.20;;;;;;5042228;28;20214;-78
2022/03/05 12:15:11;;;;;;;23.07;12.30;;;13.00;58.20;;;;;;5040810;28;20210;-78
2022/03/05 12:17:46;;;;;;;25.63;12.60;;;13.00;58.20;;;;;;5042337;28;20195;-77
2022/03/05 12:20:18;;;;;;;19.27;11.80;;;12.90;58.40;;;;;;5042734;28;20209;-77
2022/03/05 12:22:53;;;;;;;22.77;13.07;;;12.80;58.20;;;;;;5042791;28;20195;-77
2022/03/05 12:25:21;;;;;;;33.30;15.63;;;12.80;58.40;;;;;;5043751;28;20197;-77
2022/03/05 12:27:52;;;;;;;25.03;13.87;;;12.80;58.60;;;;;;5042239;28;20207;-77
2022/03/05 12:30:25;;;;;;;27.03;13.30;;;12.70;58.80;;;;;;5041350;28;20237;-76
2022/03/05 12:32:55;;;;;;;19.37;11.67;;;12.70;59.10;;;;;;5042432;28;20195;-77
2022/03/05 12:35:31;;;;;;;24.70;12.37;;;12.70;59.20;;;;;;5043258;28;20278;-78
2022/03/05 12:38:00;;;;;;;23.27;13.57;;;12.70;59.30;;;;;;5014175;28;20210;-77
2022/03/05 12:40:31;;;;;;;27.60;14.70;;;12.60;59.00;;;;;;5042323;28;20187;-77
2022/03/05 12:43:00;;;;;;;21.67;12.23;;;12.70;59.20;;;;;;5040574;28;20245;-77
2022/03/05 12:45:31;;;;;;;23.20;12.07;;;12.70;59.30;;;;;;5041155;28;20389;-78
2022/03/05 12:48:01;;;;;;;22.97;12.60;;;12.80;59.30;;;;;;5041614;28;20199;-76
2022/03/05 12:50:33;;;;;;;20.37;12.10;;;12.80;59.10;;;;;;5041756;28;20655;-77
2022/03/05 12:53:07;;;;;;;20.83;12.30;;;12.90;59.00;;;;;;5041232;28;20208;-78